sensor_id;sensor_type;location;lat;lon;timestamp;temperature;humidity
1137;DHT22;557;48.466;7.950;2023-06-10T00:00:58;20.00;84.00
1137;DHT22;557;48.466;7.950;2023-06-10T00:03:45;19.90;95.50
1137;DHT22;557;48.466;7.950;2023-06-10T00:06:33;19.90;87.40
1137;DHT22;557;48.466;7.950;2023-06-10T00:09:23;20.00;90.40
1137;DHT22;557;48.466;7.950;2023-06-10T00:12:11;20.00;57.30
1137;DHT22;557;48.466;7.950;2023-06-10T00:14:58;20.10;55.20
1137;DHT22;557;48.466;7.950;2023-06-10T00:17:46;20.10;57.50
1137;DHT22;557;48.466;7.950;2023-06-10T00:20:33;20.10;55.80
1137;DHT22;557;48.466;7.950;2023-06-10T00:23:22;20.10;45.10
1137;DHT22;557;48.466;7.950;2023-06-10T00:26:12;20.10;47.60
1137;DHT22;557;48.466;7.950;2023-06-10T00:28:59;20.00;80.70
1137;DHT22;557;48.466;7.950;2023-06-10T00:31:47;19.80;99.90
1137;DHT22;557;48.466;7.950;2023-06-10T00:34:34;19.60;99.90
1137;DHT22;557;48.466;7.950;2023-06-10T00:37:22;19.30;99.90
1137;DHT22;557;48.466;7.950;2023-06-10T00:40:10;19.10;99.90
1137;DHT22;557;48.466;7.950;2023-06-10T00:42:59;18.90;99.90
1137;DHT22;557;48.466;7.950;2023-06-10T00:45:46;18.80;82.50
1137;DHT22;557;48.466;7.950;2023-06-10T00:48:34;18.60;1.00
1137;DHT22;557;48.466;7.950;2023-06-10T00:51:22;18.50;99.90
1137;DHT22;557;48.466;7.950;2023-06-10T00:54:09;18.40;1.00
1137;DHT22;557;48.466;7.950;2023-06-10T00:57:00;18.40;1.00
1137;DHT22;557;48.466;7.950;2023-06-10T00:59:49;18.30;1.00
1137;DHT22;557;48.466;7.950;2023-06-10T01:02:37;18.30;1.00
1137;DHT22;557;48.466;7.950;2023-06-10T01:05:24;18.20;1.00
1137;DHT22;557;48.466;7.950;2023-06-10T01:08:18;18.30;51.50
1137;DHT22;557;48.466;7.950;2023-06-10T01:11:10;18.20;60.00
1137;DHT22;557;48.466;7.950;2023-06-10T01:14:01;18.10;99.90
1137;DHT22;557;48.466;7.950;2023-06-10T01:16:52;18.00;1.00
1137;DHT22;557;48.466;7.950;2023-06-10T01:19:39;17.90;99.90
1137;DHT22;557;48.466;7.950;2023-06-10T01:22:31;17.90;98.60
1137;DHT22;557;48.466;7.950;2023-06-10T01:25:23;17.80;99.90
1137;DHT22;557;48.466;7.950;2023-06-10T01:28:17;17.70;99.90
1137;DHT22;557;48.466;7.950;2023-06-10T01:31:11;17.60;75.90
1137;DHT22;557;48.466;7.950;2023-06-10T01:34:01;17.60;1.00
1137;DHT22;557;48.466;7.950;2023-06-10T01:36:50;17.50;1.00
1137;DHT22;557;48.466;7.950;2023-06-10T01:39:39;17.50;1.00
1137;DHT22;557;48.466;7.950;2023-06-10T01:42:28;17.50;99.90
1137;DHT22;557;48.466;7.950;2023-06-10T01:45:16;17.40;99.90
1137;DHT22;557;48.466;7.950;2023-06-10T01:48:04;17.30;1.00
1137;DHT22;557;48.466;7.950;2023-06-10T01:50:51;17.20;99.90
1137;DHT22;557;48.466;7.950;2023-06-10T01:53:39;17.10;99.90
1137;DHT22;557;48.466;7.950;2023-06-10T01:56:27;17.00;1.00
1137;DHT22;557;48.466;7.950;2023-06-10T01:59:15;17.00;1.00
1137;DHT22;557;48.466;7.950;2023-06-10T02:02:02;17.00;35.00
1137;DHT22;557;48.466;7.950;2023-06-10T02:04:50;17.00;99.90
1137;DHT22;557;48.466;7.950;2023-06-10T02:07:37;16.90;1.00
1137;DHT22;557;48.466;7.950;2023-06-10T02:10:25;16.90;1.00
1137;DHT22;557;48.466;7.950;2023-06-10T02:13:13;16.80;1.00
1137;DHT22;557;48.466;7.950;2023-06-10T02:16:01;16.90;1.00
1137;DHT22;557;48.466;7.950;2023-06-10T02:18:48;16.80;99.90
1137;DHT22;557;48.466;7.950;2023-06-10T02:21:35;16.70;99.90
1137;DHT22;557;48.466;7.950;2023-06-10T02:24:23;16.70;99.90
1137;DHT22;557;48.466;7.950;2023-06-10T02:27:10;16.70;99.90
1137;DHT22;557;48.466;7.950;2023-06-10T02:29:59;16.60;1.00
1137;DHT22;557;48.466;7.950;2023-06-10T02:32:47;16.50;99.90
1137;DHT22;557;48.466;7.950;2023-06-10T02:35:34;16.40;99.90
1137;DHT22;557;48.466;7.950;2023-06-10T02:38:22;16.40;99.90
1137;DHT22;557;48.466;7.950;2023-06-10T02:41:09;16.30;99.90
1137;DHT22;557;48.466;7.950;2023-06-10T02:43:57;16.30;99.90
1137;DHT22;557;48.466;7.950;2023-06-10T02:46:46;16.30;99.90
1137;DHT22;557;48.466;7.950;2023-06-10T02:49:33;16.30;99.90
1137;DHT22;557;48.466;7.950;2023-06-10T02:52:20;16.30;99.90
1137;DHT22;557;48.466;7.950;2023-06-10T02:55:09;16.30;1.00
1137;DHT22;557;48.466;7.950;2023-06-10T02:57:56;16.30;1.00
1137;DHT22;557;48.466;7.950;2023-06-10T03:00:43;16.30;1.00
1137;DHT22;557;48.466;7.950;2023-06-10T03:03:32;16.20;1.00
1137;DHT22;557;48.466;7.950;2023-06-10T03:06:21;16.20;99.90
1137;DHT22;557;48.466;7.950;2023-06-10T03:09:10;16.10;1.00
1137;DHT22;557;48.466;7.950;2023-06-10T03:11:57;16.10;1.00
1137;DHT22;557;48.466;7.950;2023-06-10T03:14:45;16.10;1.00
1137;DHT22;557;48.466;7.950;2023-06-10T03:17:32;16.00;1.00
1137;DHT22;557;48.466;7.950;2023-06-10T03:20:20;16.00;1.00
1137;DHT22;557;48.466;7.950;2023-06-10T03:23:09;15.90;1.00
1137;DHT22;557;48.466;7.950;2023-06-10T03:25:56;15.90;1.00
1137;DHT22;557;48.466;7.950;2023-06-10T03:28:43;15.90;1.00
1137;DHT22;557;48.466;7.950;2023-06-10T03:31:31;15.80;1.00
1137;DHT22;557;48.466;7.950;2023-06-10T03:34:18;15.70;1.00
1137;DHT22;557;48.466;7.950;2023-06-10T03:37:07;15.60;1.00
1137;DHT22;557;48.466;7.950;2023-06-10T03:39:55;15.60;1.00
1137;DHT22;557;48.466;7.950;2023-06-10T03:42:42;15.50;1.00
1137;DHT22;557;48.466;7.950;2023-06-10T03:45:30;15.50;1.00
1137;DHT22;557;48.466;7.950;2023-06-10T03:48:18;15.50;1.00
1137;DHT22;557;48.466;7.950;2023-06-10T03:51:05;15.50;1.00
1137;DHT22;557;48.466;7.950;2023-06-10T03:53:54;15.60;1.00
1137;DHT22;557;48.466;7.950;2023-06-10T03:56:41;15.60;1.00
1137;DHT22;557;48.466;7.950;2023-06-10T03:59:29;15.60;19.50
1137;DHT22;557;48.466;7.950;2023-06-10T04:02:16;15.60;1.00
1137;DHT22;557;48.466;7.950;2023-06-10T04:05:04;15.60;1.00
1137;DHT22;557;48.466;7.950;2023-06-10T04:07:52;15.60;1.00
1137;DHT22;557;48.466;7.950;2023-06-10T04:10:40;15.60;1.00
1137;DHT22;557;48.466;7.950;2023-06-10T04:13:28;15.60;1.00
1137;DHT22;557;48.466;7.950;2023-06-10T04:16:15;15.60;1.00
1137;DHT22;557;48.466;7.950;2023-06-10T04:19:04;15.60;1.00
1137;DHT22;557;48.466;7.950;2023-06-10T04:21:51;15.60;1.00
1137;DHT22;557;48.466;7.950;2023-06-10T04:24:38;15.60;4.10
1137;DHT22;557;48.466;7.950;2023-06-10T04:27:27;15.60;1.00
1137;DHT22;557;48.466;7.950;2023-06-10T04:30:16;15.60;1.00
1137;DHT22;557;48.466;7.950;2023-06-10T04:33:03;15.70;57.00
1137;DHT22;557;48.466;7.950;2023-06-10T04:35:54;15.80;12.50
1137;DHT22;557;48.466;7.950;2023-06-10T04:38:41;15.90;1.00
1137;DHT22;557;48.466;7.950;2023-06-10T04:41:29;16.10;1.00
1137;DHT22;557;48.466;7.950;2023-06-10T04:44:17;16.20;1.00
1137;DHT22;557;48.466;7.950;2023-06-10T04:47:05;16.30;1.00
1137;DHT22;557;48.466;7.950;2023-06-10T04:49:53;16.40;1.00
1137;DHT22;557;48.466;7.950;2023-06-10T04:52:41;16.60;1.00
1137;DHT22;557;48.466;7.950;2023-06-10T04:55:28;16.70;1.00
1137;DHT22;557;48.466;7.950;2023-06-10T04:58:16;16.80;1.00
1137;DHT22;557;48.466;7.950;2023-06-10T05:01:04;16.90;1.00
1137;DHT22;557;48.466;7.950;2023-06-10T05:03:52;17.00;1.00
1137;DHT22;557;48.466;7.950;2023-06-10T05:06:39;17.10;1.00
1137;DHT22;557;48.466;7.950;2023-06-10T05:09:26;17.20;1.00
1137;DHT22;557;48.466;7.950;2023-06-10T05:12:14;17.30;99.90
1137;DHT22;557;48.466;7.950;2023-06-10T05:15:01;17.30;99.90
1137;DHT22;557;48.466;7.950;2023-06-10T05:17:50;17.30;99.90
1137;DHT22;557;48.466;7.950;2023-06-10T05:20:37;17.50;1.00
1137;DHT22;557;48.466;7.950;2023-06-10T05:23:25;17.60;36.80
1137;DHT22;557;48.466;7.950;2023-06-10T05:26:12;17.70;99.90
1137;DHT22;557;48.466;7.950;2023-06-10T05:29:00;17.90;99.90
1137;DHT22;557;48.466;7.950;2023-06-10T05:31:47;18.10;1.00
1137;DHT22;557;48.466;7.950;2023-06-10T05:34:36;18.10;1.00
1137;DHT22;557;48.466;7.950;2023-06-10T05:37:23;18.10;1.00
1137;DHT22;557;48.466;7.950;2023-06-10T05:40:11;18.20;99.90
1137;DHT22;557;48.466;7.950;2023-06-10T05:42:59;18.50;99.90
1137;DHT22;557;48.466;7.950;2023-06-10T05:45:46;18.60;1.00
1137;DHT22;557;48.466;7.950;2023-06-10T05:48:33;18.70;99.90
1137;DHT22;557;48.466;7.950;2023-06-10T05:51:22;18.90;99.90
1137;DHT22;557;48.466;7.950;2023-06-10T05:54:09;19.10;99.90
1137;DHT22;557;48.466;7.950;2023-06-10T05:56:56;19.50;1.00
1137;DHT22;557;48.466;7.950;2023-06-10T05:59:44;19.60;99.90
1137;DHT22;557;48.466;7.950;2023-06-10T06:02:31;19.90;99.90
1137;DHT22;557;48.466;7.950;2023-06-10T06:05:19;19.80;98.30
1137;DHT22;557;48.466;7.950;2023-06-10T06:08:07;19.80;99.90
1137;DHT22;557;48.466;7.950;2023-06-10T06:10:55;19.90;43.30
1137;DHT22;557;48.466;7.950;2023-06-10T06:13:42;20.10;1.00
1137;DHT22;557;48.466;7.950;2023-06-10T06:16:29;19.90;1.00
1137;DHT22;557;48.466;7.950;2023-06-10T06:19:17;19.90;91.20
1137;DHT22;557;48.466;7.950;2023-06-10T06:22:04;20.00;41.40
1137;DHT22;557;48.466;7.950;2023-06-10T06:24:53;20.10;1.00
1137;DHT22;557;48.466;7.950;2023-06-10T06:27:40;20.20;1.00
1137;DHT22;557;48.466;7.950;2023-06-10T06:30:28;20.30;1.00
1137;DHT22;557;48.466;7.950;2023-06-10T06:33:15;20.40;1.00
1137;DHT22;557;48.466;7.950;2023-06-10T06:36:03;20.50;1.00
1137;DHT22;557;48.466;7.950;2023-06-10T06:38:50;20.60;99.90
1137;DHT22;557;48.466;7.950;2023-06-10T06:41:39;20.70;99.90
1137;DHT22;557;48.466;7.950;2023-06-10T06:44:26;20.70;99.90
1137;DHT22;557;48.466;7.950;2023-06-10T06:47:14;20.60;99.90
1137;DHT22;557;48.466;7.950;2023-06-10T06:50:04;20.70;99.90
1137;DHT22;557;48.466;7.950;2023-06-10T06:52:51;20.80;99.90
1137;DHT22;557;48.466;7.950;2023-06-10T06:55:38;20.90;99.90
1137;DHT22;557;48.466;7.950;2023-06-10T06:58:27;21.10;99.90
1137;DHT22;557;48.466;7.950;2023-06-10T07:01:14;21.20;99.90
1137;DHT22;557;48.466;7.950;2023-06-10T07:04:02;21.50;99.90
1137;DHT22;557;48.466;7.950;2023-06-10T07:06:49;21.60;99.90
1137;DHT22;557;48.466;7.950;2023-06-10T07:09:37;21.70;99.90
1137;DHT22;557;48.466;7.950;2023-06-10T07:12:25;21.90;99.90
1137;DHT22;557;48.466;7.950;2023-06-10T07:15:13;22.30;99.90
1137;DHT22;557;48.466;7.950;2023-06-10T07:18:01;22.50;99.90
1137;DHT22;557;48.466;7.950;2023-06-10T07:20:48;22.80;99.90
1137;DHT22;557;48.466;7.950;2023-06-10T07:23:35;23.10;99.90
1137;DHT22;557;48.466;7.950;2023-06-10T07:26:23;23.20;99.90
1137;DHT22;557;48.466;7.950;2023-06-10T07:29:11;23.40;99.90
1137;DHT22;557;48.466;7.950;2023-06-10T07:32:00;23.50;99.90
1137;DHT22;557;48.466;7.950;2023-06-10T07:34:47;23.90;99.90
1137;DHT22;557;48.466;7.950;2023-06-10T07:37:34;24.20;99.90
1137;DHT22;557;48.466;7.950;2023-06-10T07:40:22;24.00;99.90
1137;DHT22;557;48.466;7.950;2023-06-10T07:43:09;24.00;99.90
1137;DHT22;557;48.466;7.950;2023-06-10T07:45:56;24.20;99.90
1137;DHT22;557;48.466;7.950;2023-06-10T07:48:45;24.40;99.90
1137;DHT22;557;48.466;7.950;2023-06-10T07:51:32;24.90;99.90
1137;DHT22;557;48.466;7.950;2023-06-10T07:54:20;24.90;99.90
1137;DHT22;557;48.466;7.950;2023-06-10T07:57:07;24.50;99.90
1137;DHT22;557;48.466;7.950;2023-06-10T07:59:54;24.40;99.90
1137;DHT22;557;48.466;7.950;2023-06-10T08:02:43;24.60;99.90
1137;DHT22;557;48.466;7.950;2023-06-10T08:05:32;24.70;99.90
1137;DHT22;557;48.466;7.950;2023-06-10T08:08:19;25.10;99.90
1137;DHT22;557;48.466;7.950;2023-06-10T08:11:06;25.20;99.90
1137;DHT22;557;48.466;7.950;2023-06-10T08:13:54;25.30;99.90
1137;DHT22;557;48.466;7.950;2023-06-10T08:16:42;25.80;99.90
1137;DHT22;557;48.466;7.950;2023-06-10T08:19:30;26.20;99.90
1137;DHT22;557;48.466;7.950;2023-06-10T08:22:20;26.10;69.30
1137;DHT22;557;48.466;7.950;2023-06-10T08:25:08;25.90;80.90
1137;DHT22;557;48.466;7.950;2023-06-10T08:27:55;25.90;55.20
1137;DHT22;557;48.466;7.950;2023-06-10T08:30:51;26.00;65.90
1137;DHT22;557;48.466;7.950;2023-06-10T08:33:38;26.10;45.30
1137;DHT22;557;48.466;7.950;2023-06-10T08:36:26;25.90;58.00
1137;DHT22;557;48.466;7.950;2023-06-10T08:39:14;26.10;42.00
1137;DHT22;557;48.466;7.950;2023-06-10T08:42:09;26.30;47.90
1137;DHT22;557;48.466;7.950;2023-06-10T08:44:58;26.70;49.70
1137;DHT22;557;48.466;7.950;2023-06-10T08:47:46;27.10;49.70
1137;DHT22;557;48.466;7.950;2023-06-10T08:50:35;27.20;36.20
1137;DHT22;557;48.466;7.950;2023-06-10T08:53:24;27.50;26.10
1137;DHT22;557;48.466;7.950;2023-06-10T08:56:15;27.40;20.50
1137;DHT22;557;48.466;7.950;2023-06-10T08:59:03;26.70;18.50
1137;DHT22;557;48.466;7.950;2023-06-10T09:01:51;26.90;22.30
1137;DHT22;557;48.466;7.950;2023-06-10T09:04:40;27.50;29.00
1137;DHT22;557;48.466;7.950;2023-06-10T09:07:30;27.90;33.90
1137;DHT22;557;48.466;7.950;2023-06-10T09:10:20;28.30;27.80
1137;DHT22;557;48.466;7.950;2023-06-10T09:13:09;28.80;19.80
1137;DHT22;557;48.466;7.950;2023-06-10T09:15:57;28.90;12.80
1137;DHT22;557;48.466;7.950;2023-06-10T09:18:48;29.10;12.30
1137;DHT22;557;48.466;7.950;2023-06-10T09:21:40;29.30;9.60
1137;DHT22;557;48.466;7.950;2023-06-10T09:24:28;29.10;4.40
1137;DHT22;557;48.466;7.950;2023-06-10T09:27:17;28.90;1.20
1137;DHT22;557;48.466;7.950;2023-06-10T09:30:07;28.90;1.00
1137;DHT22;557;48.466;7.950;2023-06-10T09:32:56;28.90;1.00
1137;DHT22;557;48.466;7.950;2023-06-10T09:35:47;28.90;1.00
1137;DHT22;557;48.466;7.950;2023-06-10T09:38:35;28.90;1.00
1137;DHT22;557;48.466;7.950;2023-06-10T09:41:32;29.00;1.00
1137;DHT22;557;48.466;7.950;2023-06-10T09:44:20;29.00;1.00
1137;DHT22;557;48.466;7.950;2023-06-10T09:47:19;29.20;1.00
1137;DHT22;557;48.466;7.950;2023-06-10T09:50:07;29.40;1.00
1137;DHT22;557;48.466;7.950;2023-06-10T09:52:55;29.50;1.00
1137;DHT22;557;48.466;7.950;2023-06-10T09:55:44;29.30;1.00
1137;DHT22;557;48.466;7.950;2023-06-10T09:58:38;29.30;1.00
1137;DHT22;557;48.466;7.950;2023-06-10T10:01:28;29.30;1.00
1137;DHT22;557;48.466;7.950;2023-06-10T10:04:24;29.50;1.00
1137;DHT22;557;48.466;7.950;2023-06-10T10:07:12;29.80;1.00
1137;DHT22;557;48.466;7.950;2023-06-10T10:09:59;29.80;1.00
1137;DHT22;557;48.466;7.950;2023-06-10T10:12:48;30.00;1.00
1137;DHT22;557;48.466;7.950;2023-06-10T10:15:37;29.80;1.00
1137;DHT22;557;48.466;7.950;2023-06-10T10:18:29;29.70;1.00
1137;DHT22;557;48.466;7.950;2023-06-10T10:21:22;30.20;1.00
1137;DHT22;557;48.466;7.950;2023-06-10T10:24:15;30.60;1.00
1137;DHT22;557;48.466;7.950;2023-06-10T10:27:10;30.80;1.00
1137;DHT22;557;48.466;7.950;2023-06-10T10:29:58;31.20;1.00
1137;DHT22;557;48.466;7.950;2023-06-10T10:32:55;31.40;1.00
1137;DHT22;557;48.466;7.950;2023-06-10T10:35:44;31.90;1.00
1137;DHT22;557;48.466;7.950;2023-06-10T10:38:34;32.00;1.00
1137;DHT22;557;48.466;7.950;2023-06-10T10:41:23;31.30;1.00
1137;DHT22;557;48.466;7.950;2023-06-10T10:44:12;30.50;1.00
1137;DHT22;557;48.466;7.950;2023-06-10T10:47:03;30.00;1.00
1137;DHT22;557;48.466;7.950;2023-06-10T10:49:51;29.40;1.00
1137;DHT22;557;48.466;7.950;2023-06-10T10:52:52;28.90;1.00
1137;DHT22;557;48.466;7.950;2023-06-10T10:55:41;29.20;1.00
1137;DHT22;557;48.466;7.950;2023-06-10T10:58:29;30.10;1.00
1137;DHT22;557;48.466;7.950;2023-06-10T11:01:17;29.90;1.00
1137;DHT22;557;48.466;7.950;2023-06-10T11:04:07;30.30;1.00
1137;DHT22;557;48.466;7.950;2023-06-10T11:06:54;31.20;1.00
1137;DHT22;557;48.466;7.950;2023-06-10T11:09:58;31.40;1.00
1137;DHT22;557;48.466;7.950;2023-06-10T11:12:52;30.80;1.00
1137;DHT22;557;48.466;7.950;2023-06-10T11:15:43;30.30;1.00
1137;DHT22;557;48.466;7.950;2023-06-10T11:18:38;30.30;1.00
1137;DHT22;557;48.466;7.950;2023-06-10T11:21:26;29.70;1.00
1137;DHT22;557;48.466;7.950;2023-06-10T11:24:13;29.40;1.00
1137;DHT22;557;48.466;7.950;2023-06-10T11:27:15;29.40;1.00
1137;DHT22;557;48.466;7.950;2023-06-10T11:30:20;29.80;1.00
1137;DHT22;557;48.466;7.950;2023-06-10T11:33:08;29.80;1.00
1137;DHT22;557;48.466;7.950;2023-06-10T11:35:56;29.70;1.00
1137;DHT22;557;48.466;7.950;2023-06-10T11:38:44;29.90;1.00
1137;DHT22;557;48.466;7.950;2023-06-10T11:41:32;30.10;1.00
1137;DHT22;557;48.466;7.950;2023-06-10T11:44:20;30.60;1.00
1137;DHT22;557;48.466;7.950;2023-06-10T11:47:10;31.80;1.00
1137;DHT22;557;48.466;7.950;2023-06-10T11:49:57;31.70;1.00
1137;DHT22;557;48.466;7.950;2023-06-10T11:52:45;31.10;1.00
1137;DHT22;557;48.466;7.950;2023-06-10T11:55:43;30.70;1.00
1137;DHT22;557;48.466;7.950;2023-06-10T11:58:30;31.70;1.00
1137;DHT22;557;48.466;7.950;2023-06-10T12:01:20;32.60;1.00
1137;DHT22;557;48.466;7.950;2023-06-10T12:04:11;32.90;1.00
1137;DHT22;557;48.466;7.950;2023-06-10T12:06:58;32.10;1.00
1137;DHT22;557;48.466;7.950;2023-06-10T12:09:45;31.30;1.00
1137;DHT22;557;48.466;7.950;2023-06-10T12:12:34;31.20;1.00
1137;DHT22;557;48.466;7.950;2023-06-10T12:15:25;30.90;1.00
1137;DHT22;557;48.466;7.950;2023-06-10T12:18:16;30.50;1.00
1137;DHT22;557;48.466;7.950;2023-06-10T12:21:17;30.40;1.00
1137;DHT22;557;48.466;7.950;2023-06-10T12:24:09;31.10;1.00
1137;DHT22;557;48.466;7.950;2023-06-10T12:26:56;32.50;1.00
1137;DHT22;557;48.466;7.950;2023-06-10T12:29:51;32.90;1.00
1137;DHT22;557;48.466;7.950;2023-06-10T12:32:42;32.60;1.00
1137;DHT22;557;48.466;7.950;2023-06-10T12:35:30;32.30;1.00
1137;DHT22;557;48.466;7.950;2023-06-10T12:38:22;31.80;1.00
1137;DHT22;557;48.466;7.950;2023-06-10T12:41:13;31.10;1.00
1137;DHT22;557;48.466;7.950;2023-06-10T12:44:01;30.70;1.00
1137;DHT22;557;48.466;7.950;2023-06-10T12:46:54;30.30;1.00
1137;DHT22;557;48.466;7.950;2023-06-10T12:49:41;30.20;1.00
1137;DHT22;557;48.466;7.950;2023-06-10T12:52:28;31.20;1.00
1137;DHT22;557;48.466;7.950;2023-06-10T12:55:17;32.30;1.00
1137;DHT22;557;48.466;7.950;2023-06-10T12:58:05;32.50;1.00
1137;DHT22;557;48.466;7.950;2023-06-10T13:00:52;32.00;1.00
1137;DHT22;557;48.466;7.950;2023-06-10T13:03:40;31.20;1.00
1137;DHT22;557;48.466;7.950;2023-06-10T13:06:27;31.10;1.00
1137;DHT22;557;48.466;7.950;2023-06-10T13:09:15;30.90;1.00
1137;DHT22;557;48.466;7.950;2023-06-10T13:12:05;30.60;1.00
1137;DHT22;557;48.466;7.950;2023-06-10T13:14:52;30.30;1.00
1137;DHT22;557;48.466;7.950;2023-06-10T13:17:40;30.00;1.00
1137;DHT22;557;48.466;7.950;2023-06-10T13:20:27;29.90;1.00
1137;DHT22;557;48.466;7.950;2023-06-10T13:23:15;30.80;1.00
1137;DHT22;557;48.466;7.950;2023-06-10T13:26:02;31.90;1.00
1137;DHT22;557;48.466;7.950;2023-06-10T13:28:51;31.90;1.00
1137;DHT22;557;48.466;7.950;2023-06-10T13:31:38;31.80;1.00
1137;DHT22;557;48.466;7.950;2023-06-10T13:34:26;31.50;1.00
1137;DHT22;557;48.466;7.950;2023-06-10T13:37:14;31.00;1.00
1137;DHT22;557;48.466;7.950;2023-06-10T13:40:01;30.60;1.00
1137;DHT22;557;48.466;7.950;2023-06-10T13:42:49;30.10;1.00
1137;DHT22;557;48.466;7.950;2023-06-10T13:45:39;30.10;1.00
1137;DHT22;557;48.466;7.950;2023-06-10T13:48:27;30.60;1.00
1137;DHT22;557;48.466;7.950;2023-06-10T13:51:14;30.90;1.00
1137;DHT22;557;48.466;7.950;2023-06-10T13:54:02;31.40;1.00
1137;DHT22;557;48.466;7.950;2023-06-10T13:56:49;32.00;1.00
1137;DHT22;557;48.466;7.950;2023-06-10T13:59:37;32.50;1.00
1137;DHT22;557;48.466;7.950;2023-06-10T14:02:26;33.00;1.00
1137;DHT22;557;48.466;7.950;2023-06-10T14:05:13;33.50;1.00
1137;DHT22;557;48.466;7.950;2023-06-10T14:08:00;33.60;1.00
1137;DHT22;557;48.466;7.950;2023-06-10T14:10:48;33.20;1.00
1137;DHT22;557;48.466;7.950;2023-06-10T14:13:36;32.40;1.00
1137;DHT22;557;48.466;7.950;2023-06-10T14:16:24;31.80;1.00
1137;DHT22;557;48.466;7.950;2023-06-10T14:19:13;31.40;1.00
1137;DHT22;557;48.466;7.950;2023-06-10T14:22:00;30.80;1.00
1137;DHT22;557;48.466;7.950;2023-06-10T14:24:48;30.50;1.00
1137;DHT22;557;48.466;7.950;2023-06-10T14:27:36;30.30;1.00
1137;DHT22;557;48.466;7.950;2023-06-10T14:30:23;30.10;1.00
1137;DHT22;557;48.466;7.950;2023-06-10T14:33:10;31.10;1.00
1137;DHT22;557;48.466;7.950;2023-06-10T14:35:59;32.80;1.00
1137;DHT22;557;48.466;7.950;2023-06-10T14:38:47;34.00;1.00
1137;DHT22;557;48.466;7.950;2023-06-10T14:41:34;35.10;1.00
1137;DHT22;557;48.466;7.950;2023-06-10T14:44:21;36.00;1.00
1137;DHT22;557;48.466;7.950;2023-06-10T14:47:08;36.40;1.00
1137;DHT22;557;48.466;7.950;2023-06-10T14:49:56;35.80;1.00
1137;DHT22;557;48.466;7.950;2023-06-10T14:52:45;34.40;1.00
1137;DHT22;557;48.466;7.950;2023-06-10T14:55:32;33.40;1.00
1137;DHT22;557;48.466;7.950;2023-06-10T14:58:19;32.60;1.00
1137;DHT22;557;48.466;7.950;2023-06-10T15:01:07;31.90;1.00
1137;DHT22;557;48.466;7.950;2023-06-10T15:03:54;31.90;1.00
1137;DHT22;557;48.466;7.950;2023-06-10T15:06:41;33.20;1.00
1137;DHT22;557;48.466;7.950;2023-06-10T15:09:30;33.70;1.00
1137;DHT22;557;48.466;7.950;2023-06-10T15:12:18;34.00;1.00
1137;DHT22;557;48.466;7.950;2023-06-10T15:15:06;33.80;1.00
1137;DHT22;557;48.466;7.950;2023-06-10T15:17:53;33.50;1.00
1137;DHT22;557;48.466;7.950;2023-06-10T15:20:41;32.70;1.00
1137;DHT22;557;48.466;7.950;2023-06-10T15:23:28;31.90;1.00
1137;DHT22;557;48.466;7.950;2023-06-10T15:26:17;31.20;1.00
1137;DHT22;557;48.466;7.950;2023-06-10T15:29:04;32.00;1.00
1137;DHT22;557;48.466;7.950;2023-06-10T15:31:53;33.50;1.00
1137;DHT22;557;48.466;7.950;2023-06-10T15:34:42;34.60;1.00
1137;DHT22;557;48.466;7.950;2023-06-10T15:37:29;33.90;1.00
1137;DHT22;557;48.466;7.950;2023-06-10T15:40:17;33.00;1.00
1137;DHT22;557;48.466;7.950;2023-06-10T15:43:05;32.60;1.00
1137;DHT22;557;48.466;7.950;2023-06-10T15:45:53;32.00;1.00
1137;DHT22;557;48.466;7.950;2023-06-10T15:48:41;31.50;1.00
1137;DHT22;557;48.466;7.950;2023-06-10T15:51:28;31.80;1.00
1137;DHT22;557;48.466;7.950;2023-06-10T15:54:15;34.00;1.00
1137;DHT22;557;48.466;7.950;2023-06-10T15:57:03;35.40;1.00
1137;DHT22;557;48.466;7.950;2023-06-10T15:59:53;35.30;1.00
1137;DHT22;557;48.466;7.950;2023-06-10T16:02:40;36.50;1.00
1137;DHT22;557;48.466;7.950;2023-06-10T16:05:28;37.40;1.00
1137;DHT22;557;48.466;7.950;2023-06-10T16:08:15;37.70;1.00
1137;DHT22;557;48.466;7.950;2023-06-10T16:11:02;36.50;1.00
1137;DHT22;557;48.466;7.950;2023-06-10T16:13:51;35.50;1.00
1137;DHT22;557;48.466;7.950;2023-06-10T16:16:40;34.00;1.00
1137;DHT22;557;48.466;7.950;2023-06-10T16:19:27;32.70;1.00
1137;DHT22;557;48.466;7.950;2023-06-10T16:22:14;32.20;1.00
1137;DHT22;557;48.466;7.950;2023-06-10T16:25:01;32.20;1.00
1137;DHT22;557;48.466;7.950;2023-06-10T16:27:49;32.40;1.00
1137;DHT22;557;48.466;7.950;2023-06-10T16:30:36;32.50;1.00
1137;DHT22;557;48.466;7.950;2023-06-10T16:33:25;32.30;1.00
1137;DHT22;557;48.466;7.950;2023-06-10T16:36:12;32.10;1.00
1137;DHT22;557;48.466;7.950;2023-06-10T16:38:59;31.90;1.00
1137;DHT22;557;48.466;7.950;2023-06-10T16:41:47;31.70;1.00
1137;DHT22;557;48.466;7.950;2023-06-10T16:44:34;31.30;1.00
1137;DHT22;557;48.466;7.950;2023-06-10T16:47:22;31.30;1.00
1137;DHT22;557;48.466;7.950;2023-06-10T16:50:11;31.40;1.00
1137;DHT22;557;48.466;7.950;2023-06-10T16:52:58;31.40;1.00
1137;DHT22;557;48.466;7.950;2023-06-10T16:55:45;31.30;1.00
1137;DHT22;557;48.466;7.950;2023-06-10T16:58:33;31.20;1.00
1137;DHT22;557;48.466;7.950;2023-06-10T17:01:20;31.20;1.00
1137;DHT22;557;48.466;7.950;2023-06-10T17:04:07;31.10;1.00
1137;DHT22;557;48.466;7.950;2023-06-10T17:06:56;31.00;1.00
1137;DHT22;557;48.466;7.950;2023-06-10T17:09:44;31.00;1.00
1137;DHT22;557;48.466;7.950;2023-06-10T17:12:31;31.10;1.00
1137;DHT22;557;48.466;7.950;2023-06-10T17:15:18;30.90;1.00
1137;DHT22;557;48.466;7.950;2023-06-10T17:18:05;30.60;1.00
1137;DHT22;557;48.466;7.950;2023-06-10T17:20:53;30.40;1.00
1137;DHT22;557;48.466;7.950;2023-06-10T17:23:41;30.20;1.00
1137;DHT22;557;48.466;7.950;2023-06-10T17:26:29;29.90;1.00
1137;DHT22;557;48.466;7.950;2023-06-10T17:29:16;29.80;1.00
1137;DHT22;557;48.466;7.950;2023-06-10T17:32:04;29.60;1.00
1137;DHT22;557;48.466;7.950;2023-06-10T17:34:51;29.50;1.00
1137;DHT22;557;48.466;7.950;2023-06-10T17:37:39;29.40;1.00
1137;DHT22;557;48.466;7.950;2023-06-10T17:40:27;29.50;1.00
1137;DHT22;557;48.466;7.950;2023-06-10T17:43:15;29.50;1.00
1137;DHT22;557;48.466;7.950;2023-06-10T17:46:02;29.50;1.00
1137;DHT22;557;48.466;7.950;2023-06-10T17:48:49;29.40;1.00
1137;DHT22;557;48.466;7.950;2023-06-10T17:51:36;29.30;1.00
1137;DHT22;557;48.466;7.950;2023-06-10T17:54:24;29.30;1.00
1137;DHT22;557;48.466;7.950;2023-06-10T17:57:13;29.20;1.00
1137;DHT22;557;48.466;7.950;2023-06-10T18:00:00;29.10;1.00
1137;DHT22;557;48.466;7.950;2023-06-10T18:02:47;29.00;1.00
1137;DHT22;557;48.466;7.950;2023-06-10T18:05:35;28.90;1.00
1137;DHT22;557;48.466;7.950;2023-06-10T18:08:22;28.80;1.00
1137;DHT22;557;48.466;7.950;2023-06-10T18:11:10;28.70;1.00
1137;DHT22;557;48.466;7.950;2023-06-10T18:13:58;28.60;1.00
1137;DHT22;557;48.466;7.950;2023-06-10T18:16:45;28.60;1.00
1137;DHT22;557;48.466;7.950;2023-06-10T18:19:33;28.40;1.00
1137;DHT22;557;48.466;7.950;2023-06-10T18:22:21;28.30;1.00
1137;DHT22;557;48.466;7.950;2023-06-10T18:25:08;28.20;1.00
1137;DHT22;557;48.466;7.950;2023-06-10T18:27:55;28.00;1.00
1137;DHT22;557;48.466;7.950;2023-06-10T18:30:44;28.00;1.00
1137;DHT22;557;48.466;7.950;2023-06-10T18:33:32;27.80;1.00
1137;DHT22;557;48.466;7.950;2023-06-10T18:36:20;27.70;1.00
1137;DHT22;557;48.466;7.950;2023-06-10T18:39:07;27.50;1.00
1137;DHT22;557;48.466;7.950;2023-06-10T18:41:54;27.40;1.00
1137;DHT22;557;48.466;7.950;2023-06-10T18:44:41;27.30;1.00
1137;DHT22;557;48.466;7.950;2023-06-10T18:47:30;27.20;1.00
1137;DHT22;557;48.466;7.950;2023-06-10T18:50:17;27.00;1.00